Time;durP1;ratioP1;P1;durP2;ratioP2;P2;SDS_P1;SDS_P2;PMS_P1;PMS_P2;Temp;Humidity;BMP_temperature;BMP_pressure;BME280_temperature;BME280_humidity;BME280_pressure;Samples;Min_cycle;Max_cycle;Signal;HPM_P1;HPM_P2
2022/10/20 00:03:17;;;;;;;15.60;11.30;;;;;13.20;99209.00;;;;16638143;28;20753;-47
2022/10/20 00:11:22;;;;;;;15.97;10.77;;;;;13.20;99200.00;;;;16635691;28;20211;-47
2022/10/20 00:19:24;;;;;;;19.10;11.17;;;;;13.30;99195.00;;;;16634950;28;20229;-47
2022/10/20 00:27:28;;;;;;;12.10;10.87;;;;;13.20;99181.00;;;;16637425;28;20237;-48
2022/10/20 00:35:31;;;;;;;15.93;12.50;;;;;13.00;99185.00;;;;16636026;28;20230;-47
2022/10/20 00:43:47;;;;;;;17.50;11.77;;;;;13.00;99177.00;;;;16634121;28;20721;-47
2022/10/20 00:51:50;;;;;;;18.17;11.20;;;;;13.00;99186.00;;;;16637386;28;20214;-47
2022/10/20 00:59:54;;;;;;;15.07;10.77;;;;;13.00;99169.00;;;;16642918;28;20216;-47
2022/10/20 01:08:00;;;;;;;16.80;12.00;;;;;13.00;99147.00;;;;16653671;28;20227;-47
2022/10/20 01:16:11;;;;;;;18.97;12.60;;;;;12.90;99132.00;;;;16649686;28;20241;-47
2022/10/20 01:24:44;;;;;;;16.70;11.77;;;;;12.60;99127.00;;;;16646364;28;20883;-48
2022/10/20 01:33:03;;;;;;;13.73;12.17;;;;;12.80;99129.00;;;;16644767;28;20205;-48
2022/10/20 01:41:11;;;;;;;18.10;13.60;;;;;13.00;99113.00;;;;16642083;28;20201;-47
2022/10/20 01:49:15;;;;;;;22.13;14.77;;;;;13.10;99108.00;;;;16648596;28;20234;-47
2022/10/20 01:57:28;;;;;;;14.93;13.33;;;;;12.90;99101.00;;;;16647073;28;20220;-47
2022/10/20 02:05:41;;;;;;;15.33;12.83;;;;;13.10;99090.00;;;;16642814;28;20229;-48
2022/10/20 02:13:48;;;;;;;14.50;12.90;;;;;13.00;99082.00;;;;16643001;28;20232;-48
2022/10/20 02:21:52;;;;;;;17.30;13.70;;;;;12.90;99070.00;;;;16646765;28;20574;-47
2022/10/20 02:29:59;;;;;;;24.40;14.07;;;;;12.70;99079.00;;;;16643603;28;20233;-48
2022/10/20 02:38:03;;;;;;;18.60;14.60;;;;;13.10;99062.00;;;;16640896;28;20969;-47
2022/10/20 02:46:06;;;;;;;20.57;13.93;;;;;12.80;99058.00;;;;16645144;28;20706;-48
2022/10/20 02:54:10;;;;;;;21.43;14.10;;;;;13.00;99043.00;;;;16637607;28;20222;-48
2022/10/20 03:02:12;;;;;;;18.40;13.27;;;;;13.00;99056.00;;;;16643535;28;20205;-47
2022/10/20 03:10:16;;;;;;;18.50;14.30;;;;;13.30;99052.00;;;;16639107;28;20240;-47
2022/10/20 03:18:18;;;;;;;22.93;15.40;;;;;13.10;99052.00;;;;16642208;28;20241;-47
2022/10/20 03:26:22;;;;;;;19.60;13.73;;;;;12.60;99049.00;;;;16644615;28;20229;-48
2022/10/20 03:34:24;;;;;;;18.63;14.17;;;;;13.00;99050.00;;;;16644071;28;20604;-48
2022/10/20 03:42:28;;;;;;;18.93;14.73;;;;;13.10;99050.00;;;;16639308;28;20583;-47
2022/10/20 03:50:30;;;;;;;21.97;15.80;;;;;12.90;99053.00;;;;16640619;28;20223;-48
2022/10/20 03:58:35;;;;;;;19.97;14.87;;;;;13.00;99031.00;;;;16639789;28;20224;-47
2022/10/20 04:06:37;;;;;;;19.80;15.10;;;;;12.80;99024.00;;;;16638818;28;22026;-48
2022/10/20 04:14:41;;;;;;;19.13;15.93;;;;;13.10;99026.00;;;;16638605;28;20249;-47
2022/10/20 04:22:43;;;;;;;22.30;15.40;;;;;13.20;99023.00;;;;16641382;28;20193;-48
2022/10/20 04:30:47;;;;;;;20.70;16.33;;;;;13.00;99003.00;;;;16638691;28;20224;-47
2022/10/20 04:38:50;;;;;;;22.13;15.73;;;;;13.30;98998.00;;;;16634589;28;20229;-48
2022/10/20 04:46:54;;;;;;;23.13;17.27;;;;;13.90;99000.00;;;;16633679;28;20237;-48
2022/10/20 04:54:56;;;;;;;28.47;19.33;;;;;14.40;98978.00;;;;16616468;28;20240;-48
2022/10/20 05:03:00;;;;;;;23.17;17.90;;;;;14.50;98980.00;;;;16630155;28;20221;-48
2022/10/20 05:11:03;;;;;;;25.20;17.47;;;;;14.80;98965.00;;;;16622498;28;20222;-48
2022/10/20 05:19:06;;;;;;;24.40;17.67;;;;;15.30;98960.00;;;;16629070;28;20331;-48
2022/10/20 05:27:09;;;;;;;21.23;15.73;;;;;14.90;98942.00;;;;16638831;28;20246;-48
2022/10/20 05:35:13;;;;;;;20.20;16.67;;;;;14.70;98936.00;;;;16639423;28;20228;-48
2022/10/20 05:43:15;;;;;;;19.40;16.20;;;;;14.90;98917.00;;;;16640081;28;20208;-48
2022/10/20 05:51:20;;;;;;;25.30;17.80;;;;;14.90;98943.00;;;;16646907;28;20300;-47
2022/10/20 05:59:23;;;;;;;23.53;16.10;;;;;15.00;98920.00;;;;16638637;28;20309;-48
2022/10/20 06:07:26;;;;;;;19.57;16.03;;;;;15.00;98922.00;;;;16645895;28;20228;-48
2022/10/20 06:15:29;;;;;;;18.33;14.90;;;;;15.10;98919.00;;;;16643259;28;20246;-47
2022/10/20 06:23:33;;;;;;;23.63;15.53;;;;;15.20;98917.00;;;;16641561;28;20233;-48
2022/10/20 06:31:37;;;;;;;15.03;12.90;;;;;15.30;98927.00;;;;16644517;28;20268;-48
2022/10/20 06:39:42;;;;;;;17.20;13.10;;;;;15.60;98919.00;;;;16647981;28;20269;-49
2022/10/20 06:47:44;;;;;;;14.10;12.53;;;;;15.70;98936.00;;;;16643265;28;20247;-48
2022/10/20 06:55:56;;;;;;;13.03;11.50;;;;;15.90;98943.00;;;;16646276;28;20293;-48
2022/10/20 07:03:59;;;;;;;11.50;10.33;;;;;16.00;98944.00;;;;16634198;28;20230;-48
2022/10/20 07:12:04;;;;;;;11.70;10.50;;;;;16.50;98938.00;;;;16633748;28;20210;-48
2022/10/20 07:20:07;;;;;;;14.13;10.43;;;;;16.80;98935.00;;;;16637370;28;20230;-48
2022/10/20 07:28:11;;;;;;;11.43;10.30;;;;;16.70;98943.00;;;;16627804;28;20320;-48
2022/10/20 07:36:15;;;;;;;10.67;9.67;;;;;16.60;98917.00;;;;16632081;28;20226;-48
2022/10/20 07:44:19;;;;;;;10.30;9.30;;;;;16.60;98929.00;;;;16627787;28;20238;-47
2022/10/20 07:52:21;;;;;;;14.03;10.07;;;;;16.90;98932.00;;;;16626988;28;20581;-48
2022/10/20 08:00:25;;;;;;;9.80;8.77;;;;;17.20;98931.00;;;;16630733;28;20242;-48
2022/10/20 08:08:28;;;;;;;11.17;10.03;;;;;17.00;98906.00;;;;16626999;28;20233;-48
2022/10/20 08:16:32;;;;;;;10.07;9.17;;;;;17.30;98915.00;;;;16629378;28;20278;-49
2022/10/20 08:24:34;;;;;;;9.30;8.53;;;;;17.60;98911.00;;;;16622994;28;20246;-48
2022/10/20 08:32:38;;;;;;;8.63;7.80;;;;;17.70;98913.00;;;;16618995;28;20218;-48
2022/10/20 08:40:42;;;;;;;7.83;7.13;;;;;18.00;98883.00;;;;16630540;28;20284;-49
2022/10/20 08:48:47;;;;;;;7.07;6.40;;;;;18.30;98899.00;;;;16632056;28;20309;-48
2022/10/20 08:56:49;;;;;;;7.10;6.27;;;;;18.80;98897.00;;;;16620724;28;20301;-48
2022/10/20 09:04:55;;;;;;;6.63;6.03;;;;;19.30;98906.00;;;;16626973;28;20231;-48
2022/10/20 09:12:58;;;;;;;6.20;5.50;;;;;19.90;98902.00;;;;16637885;28;20199;-48
2022/10/20 09:21:04;;;;;;;7.10;6.40;;;;;20.30;98903.00;;;;16640687;28;20213;-48
2022/10/20 09:29:09;;;;;;;8.33;6.43;;;;;20.40;98900.00;;;;16641632;28;20241;-47
2022/10/20 09:37:14;;;;;;;7.40;5.30;;;;;19.90;98904.00;;;;16627208;28;20218;-48
2022/10/20 09:45:20;;;;;;;6.87;5.40;;;;;19.80;98911.00;;;;16634794;28;20298;-48
2022/10/20 09:53:27;;;;;;;6.40;5.80;;;;;19.90;98928.00;;;;16621975;28;20838;-48
2022/10/20 10:01:29;;;;;;;6.30;5.67;;;;;20.20;98919.00;;;;16623809;28;20753;-48
2022/10/20 10:09:35;;;;;;;6.60;6.00;;;;;20.10;98929.00;;;;16622338;28;20792;-48
2022/10/20 10:17:39;;;;;;;5.50;5.00;;;;;20.70;98933.00;;;;16622776;28;20235;-48
2022/10/20 10:25:42;;;;;;;6.07;5.47;;;;;21.20;98912.00;;;;16620022;28;20249;-48
2022/10/20 10:33:45;;;;;;;6.50;5.90;;;;;20.60;98930.00;;;;16620533;28;20256;-47
2022/10/20 10:42:07;;;;;;;6.33;5.73;;;;;20.90;98933.00;;;;16604527;28;20330;-47
2022/10/20 10:50:25;;;;;;;6.50;5.90;;;;;20.80;98938.00;;;;16601143;28;20735;-47
2022/10/20 10:58:47;;;;;;;6.10;5.50;;;;;20.90;98927.00;;;;16630228;28;20218;-48
2022/10/20 11:06:54;;;;;;;6.83;6.13;;;;;20.40;98897.00;;;;16641587;28;20227;-47
2022/10/20 11:15:09;;;;;;;7.67;6.93;;;;;20.60;98891.00;;;;16612703;28;20224;-48
2022/10/20 11:23:38;;;;;;;9.43;5.77;;;;;20.50;98883.00;;;;16620246;28;20269;-48
2022/10/20 11:31:46;;;;;;;6.40;5.80;;;;;20.70;98884.00;;;;16624749;28;20215;-49
2022/10/20 11:39:54;;;;;;;7.50;5.17;;;;;21.50;98878.00;;;;16625794;28;20249;-46
2022/10/20 11:48:00;;;;;;;6.53;5.10;;;;;21.10;98866.00;;;;16607560;28;20234;-47
2022/10/20 11:56:31;;;;;;;7.10;5.67;;;;;20.80;98853.00;;;;16633077;28;20225;-46
2022/10/20 12:04:45;;;;;;;5.93;5.43;;;;;21.10;98836.00;;;;16608312;28;20728;-46
2022/10/20 12:12:53;;;;;;;6.40;5.13;;;;;20.70;98842.00;;;;16631573;28;20645;-46
2022/10/20 12:21:00;;;;;;;6.90;6.30;;;;;20.60;98820.00;;;;16637526;28;20266;-47
2022/10/20 12:29:28;;;;;;;7.70;6.40;;;;;20.70;98799.00;;;;16613997;28;20238;-48
2022/10/20 12:37:33;;;;;;;6.73;6.03;;;;;21.10;98810.00;;;;16624577;28;20324;-48
2022/10/20 12:45:39;;;;;;;6.20;5.67;;;;;20.40;98806.00;;;;16626373;28;20720;-48
2022/10/20 12:53:43;;;;;;;7.17;6.50;;;;;20.40;98803.00;;;;16631779;28;20717;-48
2022/10/20 13:02:34;;;;;;;7.20;6.30;;;;;20.50;98819.00;;;;16652030;28;20222;-48
2022/10/20 13:10:38;;;;;;;54.00;50.20;;;;;20.90;98800.00;;;;16651186;28;20257;-48
2022/10/20 13:18:45;;;;;;;9.57;6.90;;;;;20.90;98765.00;;;;16645195;28;20238;-48
2022/10/20 13:26:53;;;;;;;7.90;7.10;;;;;21.10;98759.00;;;;16649127;28;20230;-47
2022/10/20 13:34:58;;;;;;;7.20;6.50;;;;;20.80;98764.00;;;;16631528;28;20222;-48
2022/10/20 13:43:11;;;;;;;6.00;5.40;;;;;20.80;98749.00;;;;16621370;28;20231;-47
2022/10/20 13:51:16;;;;;;;13.57;10.90;;;;;20.00;98766.00;;;;16624318;28;20227;-48
2022/10/20 13:59:22;;;;;;;7.73;6.93;;;;;19.20;98793.00;;;;16627939;28;20282;-47
2022/10/20 14:07:25;;;;;;;6.90;5.50;;;;;19.60;98779.00;;;;16623134;28;21188;-48
2022/10/20 14:15:31;;;;;;;7.57;6.87;;;;;20.10;98779.00;;;;16621152;28;20253;-48
2022/10/20 14:23:37;;;;;;;7.07;6.47;;;;;20.60;98764.00;;;;16640135;28;20206;-48
2022/10/20 14:31:41;;;;;;;10.27;6.27;;;;;19.80;98771.00;;;;16640766;28;20316;-49
2022/10/20 14:39:43;;;;;;;8.40;6.03;;;;;19.70;98761.00;;;;16638948;28;20222;-48
2022/10/20 14:47:47;;;;;;;11.23;8.50;;;;;20.40;98744.00;;;;16643415;28;20288;-48
2022/10/20 14:55:50;;;;;;;7.67;6.97;;;;;19.80;98755.00;;;;16638233;28;20208;-48
2022/10/20 15:04:14;;;;;;;5.97;5.47;;;;;19.90;98758.00;;;;16633590;28;20229;-47
2022/10/20 15:12:18;;;;;;;8.00;5.63;;;;;20.70;98731.00;;;;16644166;28;20203;-48
2022/10/20 15:20:40;;;;;;;7.27;6.57;;;;;19.40;98732.00;;;;16619660;28;20818;-47
2022/10/20 15:28:45;;;;;;;8.40;6.63;;;;;18.90;98773.00;;;;16619040;28;20225;-48
2022/10/20 15:36:49;;;;;;;10.77;7.20;;;;;19.20;98749.00;;;;16619305;28;20224;-47
2022/10/20 15:44:51;;;;;;;7.43;6.70;;;;;20.00;98753.00;;;;16626052;28;20234;-48
2022/10/20 15:52:55;;;;;;;15.10;13.80;;;;;19.10;98740.00;;;;16614095;28;20741;-47
2022/10/20 16:00:57;;;;;;;10.50;9.47;;;;;19.30;98735.00;;;;16618547;28;20597;-48
2022/10/20 16:09:04;;;;;;;15.37;11.80;;;;;18.70;98747.00;;;;16629488;28;20276;-48
2022/10/20 16:17:06;;;;;;;12.67;8.77;;;;;18.90;98753.00;;;;16637196;28;20855;-47
2022/10/20 16:25:11;;;;;;;8.10;7.30;;;;;18.50;98769.00;;;;16615832;28;20229;-48
2022/10/20 16:33:13;;;;;;;11.03;7.90;;;;;18.30;98733.00;;;;16608531;28;20221;-47
2022/10/20 16:41:17;;;;;;;11.80;7.50;;;;;18.30;98752.00;;;;16623680;28;20755;-48
2022/10/20 16:49:19;;;;;;;13.50;10.33;;;;;18.00;98738.00;;;;16614898;28;20294;-48
2022/10/20 16:57:25;;;;;;;9.70;8.70;;;;;18.60;98761.00;;;;16639494;28;20303;-48
2022/10/20 17:05:27;;;;;;;16.57;10.10;;;;;19.20;98724.00;;;;16627943;28;20234;-47
2022/10/20 17:13:31;;;;;;;17.10;11.03;;;;;19.10;98707.00;;;;16634808;28;20914;-48
2022/10/20 17:21:34;;;;;;;15.80;10.80;;;;;18.70;98689.00;;;;16627094;28;20216;-48
2022/10/20 17:29:38;;;;;;;12.33;10.07;;;;;18.10;98698.00;;;;16621446;28;20778;-48
2022/10/20 17:37:40;;;;;;;13.17;9.90;;;;;18.20;98708.00;;;;16645615;28;20215;-48
2022/10/20 17:45:45;;;;;;;16.00;12.87;;;;;18.10;98693.00;;;;16643579;28;20214;-49
2022/10/20 17:53:49;;;;;;;12.40;9.17;;;;;17.70;98735.00;;;;16627449;28;20260;-48
2022/10/20 18:01:54;;;;;;;13.80;12.30;;;;;17.50;98763.00;;;;16637972;28;20203;-48
2022/10/20 18:09:56;;;;;;;13.90;11.50;;;;;17.50;98761.00;;;;16635864;28;20241;-47
2022/10/20 18:18:00;;;;;;;14.37;12.90;;;;;17.80;98760.00;;;;16636531;28;20435;-48
2022/10/20 18:26:07;;;;;;;15.50;12.30;;;;;17.60;98757.00;;;;16635834;28;20553;-48
2022/10/20 18:34:12;;;;;;;18.30;14.43;;;;;17.50;98798.00;;;;16635003;28;20935;-48
2022/10/20 18:42:15;;;;;;;15.70;13.17;;;;;17.60;98786.00;;;;16636791;28;20528;-47
2022/10/20 18:50:19;;;;;;;16.37;14.60;;;;;18.00;98783.00;;;;16633123;28;20229;-47
2022/10/20 18:58:21;;;;;;;18.87;15.70;;;;;17.60;98761.00;;;;16624321;28;20794;-47
2022/10/20 19:06:27;;;;;;;22.80;16.03;;;;;17.40;98728.00;;;;16633884;28;20719;-47
2022/10/20 19:14:30;;;;;;;27.23;17.93;;;;;17.10;98733.00;;;;16622593;28;20813;-48
2022/10/20 19:22:37;;;;;;;20.87;16.97;;;;;17.10;98726.00;;;;16594217;28;20195;-48
2022/10/20 19:30:42;;;;;;;20.07;17.97;;;;;17.50;98751.00;;;;16599910;28;20429;-48
2022/10/20 19:38:48;;;;;;;31.37;25.70;;;;;18.20;98733.00;;;;16597654;28;20943;-48
2022/10/20 19:46:51;;;;;;;27.80;22.13;;;;;17.70;98738.00;;;;16600999;28;20230;-48
2022/10/20 19:54:54;;;;;;;21.50;18.50;;;;;17.20;98730.00;;;;16613059;28;20223;-48
2022/10/20 20:02:57;;;;;;;25.30;21.37;;;;;17.30;98739.00;;;;16613182;28;20238;-48
2022/10/20 20:11:01;;;;;;;25.47;20.60;;;;;18.00;98727.00;;;;16602838;28;20720;-49
2022/10/20 20:19:03;;;;;;;25.57;22.80;;;;;18.10;98693.00;;;;16636636;28;20226;-48
2022/10/20 20:27:07;;;;;;;26.53;21.80;;;;;17.90;98711.00;;;;16624449;28;20376;-48
2022/10/20 20:35:10;;;;;;;26.40;23.47;;;;;18.40;98695.00;;;;16634947;28;20223;-48
2022/10/20 20:43:14;;;;;;;27.43;20.93;;;;;18.50;98705.00;;;;16630763;28;20274;-49
2022/10/20 20:51:16;;;;;;;25.20;20.40;;;;;18.60;98714.00;;;;16630366;28;20271;-48
2022/10/20 20:59:20;;;;;;;25.90;22.10;;;;;18.20;98709.00;;;;16629974;28;20218;-49
2022/10/20 21:07:23;;;;;;;24.20;19.67;;;;;17.40;98702.00;;;;16645993;28;20222;-48
2022/10/20 21:15:26;;;;;;;26.20;21.10;;;;;17.30;98718.00;;;;16640187;28;20325;-48
2022/10/20 21:23:29;;;;;;;29.23;22.93;;;;;17.40;98742.00;;;;16628808;28;20958;-49
2022/10/20 21:31:33;;;;;;;34.47;25.50;;;;;17.90;98702.00;;;;16637954;28;20236;-49
2022/10/20 21:39:37;;;;;;;28.67;22.50;;;;;17.10;98685.00;;;;16633611;28;20705;-49
2022/10/20 21:47:42;;;;;;;28.77;23.57;;;;;17.60;98699.00;;;;16644497;28;20219;-48
2022/10/20 21:55:44;;;;;;;27.97;22.67;;;;;17.90;98682.00;;;;16645162;28;20232;-48
2022/10/20 22:03:49;;;;;;;28.53;22.60;;;;;16.90;98709.00;;;;16650125;28;20226;-48
2022/10/20 22:11:54;;;;;;;33.80;22.33;;;;;17.10;98687.00;;;;16646803;28;20227;-48
2022/10/20 22:19:58;;;;;;;30.47;24.27;;;;;17.50;98677.00;;;;16640186;28;20997;-49
2022/10/20 22:28:00;;;;;;;27.43;23.40;;;;;16.50;98702.00;;;;16611125;28;20843;-49
2022/10/20 22:36:04;;;;;;;35.80;24.57;;;;;17.50;98647.00;;;;16609061;28;20225;-49
2022/10/20 22:44:07;;;;;;;33.20;25.13;;;;;16.60;98634.00;;;;16602177;28;20245;-48
2022/10/20 22:52:10;;;;;;;30.33;22.07;;;;;17.00;98633.00;;;;16634890;28;20232;-48
2022/10/20 23:00:14;;;;;;;26.80;22.27;;;;;16.90;98619.00;;;;16631588;28;20222;-48
2022/10/20 23:08:18;;;;;;;26.40;22.93;;;;;16.60;98622.00;;;;16637831;28;20305;-48
2022/10/20 23:16:23;;;;;;;28.17;22.30;;;;;16.90;98620.00;;;;16636280;28;20245;-48
2022/10/20 23:24:28;;;;;;;28.13;21.87;;;;;16.60;98631.00;;;;16628681;28;20223;-48
2022/10/20 23:32:31;;;;;;;31.77;24.20;;;;;16.80;98629.00;;;;16638049;28;20669;-48
2022/10/20 23:40:35;;;;;;;29.63;23.20;;;;;16.60;98630.00;;;;16634864;28;20256;-48
2022/10/20 23:48:37;;;;;;;29.20;22.20;;;;;16.70;98623.00;;;;16638182;28;20313;-48
2022/10/20 23:56:41;;;;;;;29.37;21.50;;;;;15.90;98625.00;;;;16636193;28;20622;-48
